Time;durP1;ratioP1;P1;durP2;ratioP2;P2;SDS_P1;SDS_P2;PMS_P1;PMS_P2;Temp;Humidity;BMP_temperature;BMP_pressure;BME280_temperature;BME280_humidity;BME280_pressure;Samples;Min_cycle;Max_cycle;Signal;HPM_P1;HPM_P2
2021/12/04 00:01:10;;;;;;;;;2.00;2.00;;;;;10.70;85.58;99427.25;5018944;28;45614;-76
2021/12/04 00:03:36;;;;;;;;;0.33;0.33;;;;;10.71;85.46;99418.28;5019587;28;45272;-76
2021/12/04 00:06:09;;;;;;;;;2.00;2.00;;;;;10.75;85.64;99404.44;5018028;28;45634;-75
2021/12/04 00:08:36;;;;;;;;;0.33;0.33;;;;;10.33;85.57;99331.34;5019196;28;46505;-74
2021/12/04 00:11:03;;;;;;;;;0.00;0.00;;;;;10.81;85.80;99397.59;5021453;28;45293;-75
2021/12/04 00:13:29;;;;;;;;;0.67;0.00;;;;;10.94;85.52;99411.94;5020026;28;45650;-76
2021/12/04 00:15:54;;;;;;;;;0.00;0.00;;;;;10.89;85.66;99381.59;5037280;28;45497;-73
2021/12/04 00:18:19;;;;;;;;;0.00;0.00;;;;;11.02;85.48;99383.66;5035597;28;46190;-76
2021/12/04 00:20:45;;;;;;;;;1.00;1.00;;;;;10.94;85.38;99363.25;5054579;28;45409;-75
2021/12/04 00:23:10;;;;;;;;;2.00;1.00;;;;;11.11;85.28;99378.06;5038936;28;45384;-75
2021/12/04 00:25:38;;;;;;;;;0.00;0.00;;;;;11.16;85.47;99383.66;5038701;28;45429;-78
2021/12/04 00:28:04;;;;;;;;;0.33;0.00;;;;;10.79;85.27;99318.00;5038444;28;46842;-77
2021/12/04 00:30:29;;;;;;;;;0.00;0.00;;;;;10.88;85.52;99326.75;5036670;28;45493;-77
2021/12/04 00:32:59;;;;;;;;;0.00;0.00;;;;;11.24;85.44;99375.63;5038998;28;45229;-74
2021/12/04 00:49:06;;;;;;;;;0.00;0.00;;;;;11.24;85.26;99348.19;5019369;28;45311;-78
2021/12/04 00:51:32;;;;;;;;;2.33;1.00;;;;;11.45;84.95;99350.13;5038889;28;45291;-75
2021/12/04 00:53:57;;;;;;;;;0.00;0.00;;;;;11.57;85.25;99367.25;5038560;28;45309;-74
2021/12/04 00:56:23;;;;;;;;;0.00;0.00;;;;;11.48;84.77;99341.75;5036938;28;45273;-74
2021/12/04 00:58:48;;;;;;;;;0.00;0.00;;;;;11.50;84.47;99334.41;5036952;28;47561;-77
2021/12/04 01:01:19;;;;;;;;;0.00;0.00;;;;;11.54;84.63;99346.34;5018828;28;45548;-76
2021/12/04 01:03:44;;;;;;;;;0.00;0.00;;;;;11.61;84.42;99344.59;5017024;28;45542;-75
2021/12/04 01:06:10;;;;;;;;;0.00;0.00;;;;;11.76;84.08;99366.72;5017144;28;45500;-76
2021/12/04 01:08:35;;;;;;;;;0.00;0.00;;;;;11.54;84.22;99306.41;5033226;28;48617;-75
2021/12/04 01:11:04;;;;;;;;;0.00;0.00;;;;;11.82;84.36;99358.03;5017988;28;45375;-76
2021/12/04 01:13:30;;;;;;;;;0.00;0.00;;;;;11.77;83.76;99348.88;5018017;28;45237;-75
2021/12/04 01:15:56;;;;;;;;;0.33;0.00;;;;;11.81;83.62;99339.53;5018216;28;45340;-76
2021/12/04 01:18:22;;;;;;;;;0.00;0.00;;;;;11.57;83.93;99303.38;5017927;28;45589;-75
2021/12/04 01:20:47;;;;;;;;;0.00;0.00;;;;;11.77;83.84;99333.75;5016500;28;45291;-77
2021/12/04 01:23:15;;;;;;;;;0.00;0.00;;;;;11.80;83.66;99330.72;5017791;28;45336;-75
2021/12/04 01:25:41;;;;;;;;;0.00;0.00;;;;;11.88;83.54;99327.97;5016803;28;45423;-74
2021/12/04 01:28:06;;;;;;;;;0.00;0.00;;;;;11.91;84.02;99339.28;5029523;28;45439;-76
2021/12/04 01:30:32;;;;;;;;;0.00;0.00;;;;;11.95;84.19;99343.22;5037768;28;45566;-77
2021/12/04 01:32:58;;;;;;;;;0.00;0.00;;;;;11.88;84.17;99335.16;5037500;28;45233;-76
2021/12/04 01:35:23;;;;;;;;;0.00;0.00;;;;;11.83;84.42;99333.06;5037505;28;45357;-74
2021/12/04 01:37:48;;;;;;;;;0.00;0.00;;;;;12.03;84.41;99361.75;5036142;28;45518;-75
2021/12/04 01:40:14;;;;;;;;;0.00;0.00;;;;;11.99;84.18;99355.94;5037488;28;45316;-75
2021/12/04 01:42:40;;;;;;;;;0.00;0.00;;;;;11.90;84.39;99333.13;5037524;28;45307;-76
2021/12/04 01:45:07;;;;;;;;;0.00;0.00;;;;;12.09;84.34;99363.66;5036687;28;45307;-75
2021/12/04 01:47:32;;;;;;;;;0.00;0.00;;;;;12.07;84.21;99366.53;5037323;28;45562;-74
2021/12/04 01:50:00;;;;;;;;;1.00;0.00;;;;;11.72;84.32;99308.69;5037836;28;45294;-75
2021/12/04 01:52:26;;;;;;;;;0.00;0.00;;;;;12.06;84.14;99356.06;5040078;28;45421;-74
2021/12/04 01:54:52;;;;;;;;;0.00;0.00;;;;;12.08;84.13;99357.50;5040192;28;45270;-74
2021/12/04 01:57:20;;;;;;;;;0.00;0.00;;;;;12.07;84.19;99361.19;5035699;28;48644;-77
2021/12/04 01:59:46;;;;;;;;;0.00;0.00;;;;;11.65;83.80;99282.00;5036675;28;45170;-74
2021/12/04 02:02:12;;;;;;;;;0.00;0.00;;;;;12.08;83.84;99356.69;5035941;28;45367;-76
2021/12/04 02:04:37;;;;;;;;;0.00;0.00;;;;;12.14;83.97;99362.09;5052920;28;45409;-77
2021/12/04 02:07:04;;;;;;;;;0.00;0.00;;;;;12.20;84.00;99371.16;5035797;28;45668;-74
2021/12/04 02:09:31;;;;;;;;;1.00;0.00;;;;;12.20;83.78;99371.16;5036880;28;45478;-75
2021/12/04 02:11:57;;;;;;;;;0.00;0.00;;;;;12.28;83.92;99378.22;5034740;28;45433;-75
2021/12/04 02:14:25;;;;;;;;;0.00;0.00;;;;;12.16;83.66;99361.88;5021484;28;45462;-74
2021/12/04 02:16:51;;;;;;;;;0.00;0.00;;;;;12.23;82.75;99360.16;5036452;28;45442;-75
2021/12/04 02:19:17;;;;;;;;;0.00;0.00;;;;;12.30;82.77;99373.53;5036940;28;45447;-75
2021/12/04 02:21:43;;;;;;;;;0.00;0.00;;;;;12.37;82.25;99371.75;5036929;28;45352;-75
2021/12/04 02:24:09;;;;;;;;;0.00;0.00;;;;;12.41;82.94;99379.22;5037306;28;45257;-74
2021/12/04 02:26:34;;;;;;;;;0.00;0.00;;;;;12.18;82.03;99330.56;5034948;28;48351;-75
2021/12/04 02:29:00;;;;;;;;;0.00;0.00;;;;;12.31;82.10;99352.03;5036768;28;45324;-77
2021/12/04 02:31:26;;;;;;;;;0.00;0.00;;;;;12.41;81.96;99368.53;5036980;28;45285;-75
2021/12/04 02:33:52;;;;;;;;;0.00;0.00;;;;;12.52;81.48;99371.72;5035642;28;45351;-74
2021/12/04 02:36:18;;;;;;;;;0.00;0.00;;;;;12.45;81.37;99364.47;5034426;28;48717;-75
2021/12/04 02:38:49;;;;;;;;;0.00;0.00;;;;;12.41;80.93;99357.88;5037298;28;45303;-75
2021/12/04 02:41:14;;;;;;;;;0.00;0.00;;;;;12.56;81.51;99386.31;5036463;28;45578;-77
2021/12/04 02:43:39;;;;;;;;;0.00;0.00;;;;;12.49;80.98;99363.06;5035479;28;45496;-75
2021/12/04 02:46:05;;;;;;;;;0.00;0.00;;;;;12.08;80.60;99298.91;5036484;28;45451;-74
2021/12/04 02:48:30;;;;;;;;;0.00;0.00;;;;;12.59;80.86;99365.41;5036553;28;45316;-77
2021/12/04 02:50:56;;;;;;;;;0.00;0.00;;;;;12.54;80.55;99367.84;5036539;28;45431;-76
2021/12/04 02:53:21;;;;;;;;;0.00;0.00;;;;;12.60;80.41;99383.06;5036801;28;45321;-75
2021/12/04 02:55:47;;;;;;;;;0.00;0.00;;;;;12.58;80.31;99358.44;5036366;28;46323;-76
2021/12/04 02:58:15;;;;;;;;;0.00;0.00;;;;;12.69;80.65;99375.78;5018218;28;45273;-74
2021/12/04 03:00:46;;;;;;;;;0.00;0.00;;;;;12.54;80.32;99367.00;5015234;28;45304;-75
2021/12/04 03:03:12;;;;;;;;;0.00;0.00;;;;;12.65;80.15;99377.19;5016905;28;45274;-76
2021/12/04 03:05:38;;;;;;;;;0.00;0.00;;;;;12.62;80.45;99374.91;5016497;28;46224;-75
2021/12/04 03:08:06;;;;;;;;;1.67;1.00;;;;;12.67;79.67;99388.47;5021382;28;45601;-75
2021/12/04 03:10:32;;;;;;;;;0.00;0.00;;;;;12.69;80.16;99397.94;5016631;28;45389;-76
2021/12/04 03:12:57;;;;;;;;;0.00;0.00;;;;;12.61;80.25;99359.88;5034927;28;45248;-74
2021/12/04 03:15:23;;;;;;;;;0.00;0.00;;;;;12.63;80.29;99380.03;5036075;28;45428;-74
2021/12/04 03:17:49;;;;;;;;;0.00;0.00;;;;;12.70;80.28;99378.25;5036328;28;45365;-74
2021/12/04 03:20:15;;;;;;;;;0.00;0.00;;;;;12.07;80.45;99285.78;5036440;28;45341;-74
2021/12/04 03:22:41;;;;;;;;;0.00;0.00;;;;;12.67;80.27;99370.63;5036453;28;45392;-74
2021/12/04 03:25:07;;;;;;;;;2.00;0.67;;;;;12.69;80.46;99370.44;5023877;28;46520;-75
2021/12/04 03:27:33;;;;;;;;;0.00;0.00;;;;;12.66;81.17;99373.50;5014827;28;45336;-74
2021/12/04 03:30:01;;;;;;;;;0.00;0.00;;;;;12.64;80.88;99386.19;5016309;28;45494;-76
2021/12/04 03:35:17;;;;;;;;;0.00;0.00;;;;;12.69;80.89;99395.25;5016344;28;45535;-75
2021/12/04 03:40:02;;;;;;;;;0.67;0.00;;;;;12.59;81.16;99357.41;5018482;28;45666;-74
2021/12/04 03:41:02;;;;;;;;;0.00;0.00;;;;;12.65;80.84;99363.84;5019248;28;45505;-75
2021/12/04 03:43:29;;;;;;;;;0.00;0.00;;;;;12.70;80.30;99377.44;5018170;28;46240;-75
2021/12/04 03:46:00;;;;;;;;;0.00;0.00;;;;;12.72;79.79;99375.38;5019359;28;45602;-75
2021/12/04 03:51:04;;;;;;;;;0.00;0.00;;;;;12.17;79.31;99280.94;5037868;28;45570;-75
2021/12/04 03:53:30;;;;;;;;;0.00;0.00;;;;;12.15;78.74;99283.81;5044274;28;45241;-72
2021/12/04 03:55:56;;;;;;;;;0.00;0.00;;;;;12.50;78.52;99329.25;5043902;28;46392;-77
2021/12/04 03:58:22;;;;;;;;;0.00;0.00;;;;;12.78;78.82;99372.78;5039825;28;45378;-74
2021/12/04 04:00:47;;;;;;;;;0.33;0.00;;;;;12.81;78.54;99374.22;5038734;28;45245;-76
2021/12/04 04:03:14;;;;;;;;;0.00;0.00;;;;;12.69;78.11;99352.59;5039706;28;45531;-75
2021/12/04 04:05:39;;;;;;;;;0.00;0.00;;;;;12.73;77.99;99356.53;5026453;28;48242;-74
2021/12/04 04:08:05;;;;;;;;;1.67;0.00;;;;;12.80;78.14;99378.72;5019018;28;45620;-76
2021/12/04 04:10:30;;;;;;;;;0.00;0.00;;;;;12.29;78.42;99294.59;5036448;28;45314;-74
2021/12/04 04:12:55;;;;;;;;;0.00;0.00;;;;;12.73;78.06;99366.38;5039461;28;45328;-74
2021/12/04 04:15:22;;;;;;;;;10.00;9.33;;;;;12.68;78.24;99352.78;5038583;28;46090;-75
2021/12/04 04:17:48;;;;;;;;;0.00;0.00;;;;;12.73;78.43;99366.38;5025997;28;45419;-74
2021/12/04 04:20:18;;;;;;;;;0.00;0.00;;;;;12.84;78.03;99381.88;5018892;28;45346;-74
2021/12/04 04:22:46;;;;;;;;;0.00;0.00;;;;;12.44;78.48;99320.19;5017475;28;45591;-74
2021/12/04 04:25:13;;;;;;;;;1.00;0.00;;;;;12.80;78.60;99369.91;5018351;28;46435;-74
2021/12/04 04:27:39;;;;;;;;;2.00;0.00;;;;;12.84;78.42;99370.38;5018505;28;45490;-75
2021/12/04 04:30:11;;;;;;;;;0.00;0.00;;;;;12.88;78.46;99374.31;5018030;28;45404;-76
2021/12/04 04:32:37;;;;;;;;;1.00;0.00;;;;;12.48;78.56;99316.13;5039516;28;45518;-74
2021/12/04 04:35:10;;;;;;;;;0.00;0.00;;;;;12.87;78.48;99381.47;5033078;28;46067;-75
2021/12/04 04:59:16;;;;;;;;;2.00;0.00;;;;;12.25;77.86;99270.19;5018171;28;45469;-74
2021/12/04 05:12:26;;;;;;;;;0.00;0.00;;;;;12.09;77.82;99252.59;5018041;28;45233;-75
2021/12/04 05:15:00;;;;;;;;;1.00;0.00;;;;;12.52;78.05;99321.06;5018166;28;45484;-76
2021/12/04 05:17:52;;;;;;;;;0.00;0.00;;;;;12.04;77.41;99248.88;5026517;28;48746;-75
2021/12/04 05:20:33;;;;;;;;;0.00;0.00;;;;;12.43;77.25;99323.88;5017843;28;45325;-75
2021/12/04 05:22:59;;;;;;;;;0.00;0.00;;;;;12.45;77.46;99324.50;5017943;28;45481;-74
2021/12/04 05:25:25;;;;;;;;;0.00;0.00;;;;;12.47;77.62;99332.31;5016506;28;45576;-74
2021/12/04 05:27:50;;;;;;;;;0.00;0.00;;;;;12.33;77.49;99311.84;5016195;28;47453;-74
2021/12/04 05:30:16;;;;;;;;;0.00;0.00;;;;;12.50;77.68;99347.91;5022119;28;45278;-74
2021/12/04 05:32:41;;;;;;;;;1.00;0.00;;;;;12.52;77.30;99339.72;5036351;28;45416;-74
2021/12/04 05:35:07;;;;;;;;;0.67;0.00;;;;;12.51;77.57;99340.72;5036157;28;45580;-73
2021/12/04 05:37:33;;;;;;;;;1.00;0.00;;;;;12.51;77.55;99351.41;5035782;28;47526;-74
2021/12/04 05:39:58;;;;;;;;;0.00;0.00;;;;;12.57;77.40;99340.78;5036102;28;45489;-75
2021/12/04 05:42:23;;;;;;;;;0.00;0.00;;;;;12.48;77.70;99326.78;5037662;28;45291;-72
2021/12/04 05:44:49;;;;;;;;;1.00;1.00;;;;;12.48;77.43;99321.44;5037176;28;45326;-73
2021/12/04 05:47:23;;;;;;;;;0.00;0.00;;;;;12.61;77.15;99335.88;5037392;28;45665;-73
2021/12/04 05:57:53;;;;;;;;;2.00;1.00;;;;;12.58;77.29;99337.09;5031653;28;47183;-72
2021/12/04 06:00:24;;;;;;;;;0.00;0.00;;;;;12.57;76.96;99332.78;5024426;28;45670;-73
2021/12/04 06:02:49;;;;;;;;;0.00;0.00;;;;;12.26;77.86;99285.16;5015895;28;45329;-74
2021/12/04 06:05:17;;;;;;;;;0.67;0.00;;;;;12.70;77.60;99354.25;5017115;28;45506;-73
2021/12/04 06:07:43;;;;;;;;;0.00;0.00;;;;;12.72;77.09;99354.06;5015708;28;48066;-75
2021/12/04 06:10:10;;;;;;;;;0.00;0.00;;;;;12.61;77.23;99330.56;5015691;28;45395;-74
2021/12/04 06:12:36;;;;;;;;;0.00;0.00;;;;;12.67;76.89;99346.63;5032488;28;45389;-74
2021/12/04 06:15:03;;;;;;;;;1.00;0.00;;;;;12.73;77.05;99351.19;5017670;28;45484;-74
2021/12/04 06:17:30;;;;;;;;;0.00;0.00;;;;;12.75;76.89;99351.00;5016730;28;46828;-73
2021/12/04 06:22:42;;;;;;;;;0.00;0.00;;;;;12.68;77.21;99336.78;5017748;28;45459;-75
2021/12/04 06:25:24;;;;;;;;;0.00;0.00;;;;;12.74;76.66;99338.69;5017435;28;45427;-73
2021/12/04 06:27:50;;;;;;;;;0.00;0.00;;;;;12.68;76.98;99332.28;5016724;28;45896;-74
2021/12/04 06:30:18;;;;;;;;;0.00;0.00;;;;;12.54;76.91;99305.69;5021974;28;45245;-74
2021/12/04 06:32:47;;;;;;;;;2.00;1.00;;;;;12.47;76.79;99293.13;5035313;28;45281;-75
2021/12/04 06:35:13;;;;;;;;;0.00;0.00;;;;;12.64;77.11;99324.88;5036961;28;45459;-75
2021/12/04 06:37:39;;;;;;;;;0.00;0.00;;;;;12.69;76.57;99309.94;5036411;28;46373;-75
2021/12/04 06:40:07;;;;;;;;;0.00;0.00;;;;;12.76;76.95;99317.97;5036354;28;45364;-75
2021/12/04 06:42:32;;;;;;;;;0.00;0.00;;;;;12.68;76.84;99299.47;5035521;28;45178;-76
2021/12/04 06:44:58;;;;;;;;;1.00;0.00;;;;;12.61;76.60;99290.56;5036270;28;45150;-75
2021/12/04 06:47:24;;;;;;;;;1.00;1.00;;;;;12.67;77.02;99298.63;5052165;28;48757;-75
2021/12/04 06:49:51;;;;;;;;;4.33;3.00;;;;;12.80;76.85;99317.41;5036700;28;45486;-74
2021/12/04 06:52:21;;;;;;;;;1.00;1.00;;;;;12.56;77.31;99274.34;5037686;28;45353;-74
2021/12/04 06:54:55;;;;;;;;;0.00;0.00;;;;;12.76;77.28;99312.66;5038222;28;45617;-76
2021/12/04 06:57:22;;;;;;;;;3.00;0.00;;;;;12.69;77.75;99303.78;5035156;28;46640;-74
2021/12/04 06:59:48;;;;;;;;;1.00;1.00;;;;;12.76;77.94;99316.13;5028639;28;45423;-75
2021/12/04 07:02:14;;;;;;;;;1.00;0.00;;;;;12.71;77.92;99310.56;5051735;28;45300;-75
2021/12/04 07:04:40;;;;;;;;;0.00;0.00;;;;;12.70;78.18;99292.09;5035558;28;45280;-75
2021/12/04 07:07:07;;;;;;;;;0.00;0.00;;;;;12.68;78.36;99288.81;5034900;28;47609;-75
2021/12/04 07:09:35;;;;;;;;;1.00;1.00;;;;;12.60;79.19;99289.75;5036852;28;45451;-78
2021/12/04 07:12:01;;;;;;;;;0.33;0.33;;;;;12.63;79.11;99301.91;5039760;28;45465;-74
2021/12/04 07:14:31;;;;;;;;;2.00;0.00;;;;;12.61;79.32;99287.91;5040159;28;45402;-74
2021/12/04 07:16:58;;;;;;;;;0.00;0.00;;;;;12.45;79.20;99255.19;5039165;28;46685;-74
2021/12/04 07:19:23;;;;;;;;;0.00;0.00;;;;;12.70;79.89;99295.59;5039683;28;45474;-74
2021/12/04 07:21:49;;;;;;;;;0.00;0.00;;;;;12.57;79.55;99275.97;5039665;28;45563;-75
2021/12/04 07:24:15;;;;;;;;;1.00;1.00;;;;;12.56;79.82;99264.50;5037526;28;45449;-76
2021/12/04 07:26:41;;;;;;;;;1.33;1.33;;;;;12.59;79.42;99269.44;5038203;28;47261;-75
2021/12/04 07:29:07;;;;;;;;;1.33;1.33;;;;;12.78;79.53;99289.28;5039560;28;45216;-76
2021/12/04 07:31:33;;;;;;;;;0.00;0.00;;;;;12.60;79.66;99264.94;5038072;28;45313;-75
2021/12/04 07:33:59;;;;;;;;;1.00;0.00;;;;;12.75;80.32;99292.34;5030022;28;45494;-75
2021/12/04 07:36:25;;;;;;;;;2.00;0.00;;;;;12.76;79.87;99285.97;5039829;28;46321;-76
2021/12/04 07:38:50;;;;;;;;;1.00;1.00;;;;;12.77;80.42;99298.28;5039650;28;45439;-75
2021/12/04 07:41:19;;;;;;;;;0.33;0.33;;;;;12.72;80.54;99304.22;5024337;28;45836;-74
2021/12/04 07:43:45;;;;;;;;;0.00;0.00;;;;;12.66;80.51;99290.84;5021645;28;45575;-76
2021/12/04 07:46:11;;;;;;;;;0.33;0.33;;;;;12.62;80.76;99278.91;5035776;28;46549;-74
2021/12/04 07:48:36;;;;;;;;;0.00;0.00;;;;;12.70;81.07;99292.09;5037759;28;45357;-74
2021/12/04 07:51:02;;;;;;;;;1.00;1.00;;;;;12.65;81.37;99289.19;5037243;28;45534;-75
2021/12/04 07:53:29;;;;;;;;;0.00;0.00;;;;;12.60;80.52;99294.25;5034817;28;45235;-73
2021/12/04 07:55:55;;;;;;;;;0.00;0.00;;;;;12.71;80.58;99293.75;5024886;28;48523;-74
2021/12/04 07:58:20;;;;;;;;;0.00;0.00;;;;;12.74;80.23;99298.69;5021265;28;45360;-74
2021/12/04 08:00:45;;;;;;;;;0.00;0.00;;;;;12.54;80.09;99265.72;5019580;28;45365;-76
2021/12/04 08:03:11;;;;;;;;;0.00;0.00;;;;;12.65;79.91;99283.84;5029837;28;45438;-75
2021/12/04 08:05:36;;;;;;;;;1.00;0.00;;;;;12.22;79.58;99201.28;5039078;28;46111;-74
2021/12/04 08:08:02;;;;;;;;;0.00;0.00;;;;;12.68;79.33;99272.81;5038379;28;45340;-74
2021/12/04 08:10:28;;;;;;;;;0.00;0.00;;;;;12.76;78.43;99291.31;5037546;28;45388;-75
2021/12/04 08:12:54;;;;;;;;;0.00;0.00;;;;;12.88;78.50;99304.97;5039845;28;45268;-76
2021/12/04 08:15:20;;;;;;;;;0.00;0.00;;;;;12.88;78.06;99308.44;5037364;28;48389;-74
2021/12/04 08:17:46;;;;;;;;;0.00;0.00;;;;;12.87;77.21;99292.63;5037260;28;46125;-72
2021/12/04 08:20:13;;;;;;;;;0.33;0.00;;;;;12.93;77.00;99314.00;5049356;28;45182;-69
2021/12/04 08:22:39;;;;;;;;;0.00;0.00;;;;;12.94;76.65;99307.66;5039126;28;45295;-75
2021/12/04 08:25:06;;;;;;;;;0.00;0.00;;;;;12.67;76.59;99276.50;5038606;28;45994;-77
2021/12/04 08:27:31;;;;;;;;;3.67;3.00;;;;;12.91;76.93;99326.72;5036801;28;45752;-75
2021/12/04 08:29:57;;;;;;;;;0.00;0.00;;;;;12.97;77.01;99339.28;5038861;28;45478;-74
2021/12/04 08:32:23;;;;;;;;;0.00;0.00;;;;;12.85;76.85;99313.34;5037041;28;45481;-78
2021/12/04 08:34:51;;;;;;;;;2.00;1.00;;;;;12.73;76.40;99305.03;5036997;28;45964;-75
2021/12/04 08:37:16;;;;;;;;;0.00;0.00;;;;;12.86;76.52;99315.81;5037137;28;45318;-74
2021/12/04 08:39:42;;;;;;;;;0.00;0.00;;;;;12.93;75.66;99339.88;5038701;28;45316;-77
2021/12/04 08:42:07;;;;;;;;;0.00;0.00;;;;;12.83;74.77;99318.88;5035559;28;45600;-73
2021/12/04 08:44:33;;;;;;;;;0.00;0.00;;;;;13.00;74.25;99346.06;5025044;28;45879;-75
2021/12/04 08:46:59;;;;;;;;;0.00;0.00;;;;;12.94;74.25;99337.00;5018692;28;45511;-76
2021/12/04 08:49:26;;;;;;;;;0.00;0.00;;;;;12.88;74.01;99337.78;5017045;28;45281;-75
2021/12/04 08:51:52;;;;;;;;;0.67;0.67;;;;;12.97;73.41;99341.94;5019121;28;45526;-76
2021/12/04 08:54:17;;;;;;;;;1.00;0.00;;;;;12.52;72.57;99278.41;5023479;28;46014;-74
2021/12/04 08:56:43;;;;;;;;;0.00;0.00;;;;;12.93;71.46;99351.34;5024704;28;45586;-78
2021/12/04 08:59:09;;;;;;;;;0.67;0.67;;;;;12.84;70.82;99347.19;5027186;28;45418;-75
2021/12/04 09:01:40;;;;;;;;;0.00;0.00;;;;;12.93;71.29;99379.88;5024476;28;45498;-76
2021/12/04 09:04:15;;;;;;;;;0.00;0.00;;;;;12.88;71.45;99359.13;5026691;28;45641;-76
2021/12/04 09:06:41;;;;;;;;;1.00;0.00;;;;;12.78;68.96;99370.09;5051418;28;45577;-75
2021/12/04 09:09:09;;;;;;;;;0.00;0.00;;;;;12.76;68.91;99393.47;5019494;28;45418;-75
2021/12/04 09:11:39;;;;;;;;;0.00;0.00;;;;;12.68;67.71;99374.13;5023071;28;45487;-76
2021/12/04 09:14:06;;;;;;;;;0.33;0.33;;;;;12.57;68.33;99371.94;5033058;28;47586;-76
2021/12/04 09:16:32;;;;;;;;;1.67;0.67;;;;;12.71;67.85;99400.41;5035756;28;45827;-75
2021/12/04 09:18:57;;;;;;;;;0.00;0.00;;;;;12.41;68.04;99363.22;5037759;28;45552;-75
2021/12/04 09:21:27;;;;;;;;;0.67;0.67;;;;;12.75;66.89;99428.34;5026967;28;45237;-77
2021/12/04 09:24:02;;;;;;;;;0.00;0.00;;;;;12.73;66.82;99412.53;5023231;28;47690;-73
2021/12/04 09:26:40;;;;;;;;;0.00;0.00;;;;;12.84;67.06;99416.53;5023768;28;45571;-72
2021/12/04 09:29:20;;;;;;;;;0.67;0.67;;;;;12.80;66.40;99418.75;5033083;28;45306;-69
2021/12/04 10:04:51;;;;;;;;;3.67;3.00;;;;;12.92;61.11;99437.75;5022155;28;45238;-73
2021/12/04 10:13:10;;;;;;;;;1.00;0.00;;;;;13.09;61.10;99484.50;5036619;28;45411;-75
2021/12/04 10:34:31;;;;;;;;;1.67;1.00;;;;;12.70;60.81;99513.41;5017449;28;45633;-80
2021/12/04 10:37:12;;;;;;;;;1.00;0.00;;;;;12.66;61.24;99510.31;5016704;28;45548;-72
2021/12/04 10:39:39;;;;;;;;;0.33;0.33;;;;;12.20;61.04;99453.75;5017533;28;47509;-71
2021/12/04 10:42:12;;;;;;;;;0.00;0.00;;;;;12.45;61.58;99511.09;5025121;28;45648;-74
2021/12/04 10:44:44;;;;;;;;;6.00;3.00;;;;;12.59;61.26;99522.72;5026005;28;45505;-72
2021/12/04 10:47:12;;;;;;;;;1.00;1.00;;;;;12.59;61.80;99525.38;5037211;28;45328;-70
2021/12/04 10:52:31;;;;;;;;;0.00;0.00;;;;;12.62;60.93;99516.22;5036083;28;45240;-72
2021/12/04 10:55:26;;;;;;;;;1.33;1.00;;;;;12.64;61.03;99524.84;5039571;28;45344;-72
2021/12/04 11:03:39;;;;;;;;;2.67;2.00;;;;;12.60;61.02;99532.38;5038633;28;45487;-72
2021/12/04 11:45:10;;;;;;;;;3.67;2.00;;;;;11.83;68.72;99602.00;5020313;28;46312;-69
2021/12/04 11:47:41;;;;;;;;;1.00;1.00;;;;;11.81;69.11;99608.50;5030658;28;45431;-76
2021/12/04 11:50:24;;;;;;;;;2.67;2.67;;;;;11.70;66.84;99596.41;5028457;28;45817;-74
2021/12/04 11:52:53;;;;;;;;;3.33;2.00;;;;;11.72;67.16;99599.72;5020376;28;45417;-75
2021/12/04 11:55:21;;;;;;;;;3.00;2.00;;;;;11.61;66.70;99589.50;5024663;28;48478;-80
2021/12/04 11:57:48;;;;;;;;;7.33;4.33;;;;;11.47;67.83;99576.97;5039258;28;45566;-70
2021/12/04 12:00:30;;;;;;;;;3.33;3.33;;;;;11.49;66.79;99575.78;5025780;28;45310;-73
2021/12/04 12:03:11;;;;;;;;;4.00;2.67;;;;;11.64;66.75;99610.47;5028376;28;45446;-76
2021/12/04 12:05:46;;;;;;;;;5.33;4.67;;;;;11.08;67.81;99535.34;5039115;28;46431;-75
2021/12/04 12:08:27;;;;;;;;;18.33;17.33;;;;;11.65;67.02;99620.09;5038771;28;45435;-74
2021/12/04 12:10:57;;;;;;;;;8.67;6.67;;;;;11.71;67.53;99613.22;5037244;28;45318;-74
2021/12/04 12:13:30;;;;;;;;;8.00;5.00;;;;;11.34;66.70;99563.44;5035080;28;45317;-75
2021/12/04 12:16:06;;;;;;;;;7.33;7.33;;;;;11.71;65.87;99622.03;5036698;28;47602;-73
2021/12/04 12:18:45;;;;;;;;;4.33;3.67;;;;;11.20;63.52;99544.56;5030492;28;45563;-74
2021/12/04 12:21:13;;;;;;;;;6.00;4.67;;;;;11.49;62.38;99596.25;5046119;28;45296;-71
2021/12/04 12:32:48;;;;;;;;;7.33;5.00;;;;;11.80;60.92;99668.09;5029572;28;45560;-72
2021/12/04 12:38:38;;;;;;;;;7.00;4.00;;;;;11.76;60.33;99698.72;5026775;28;45918;-74
2021/12/04 12:41:16;;;;;;;;;9.00;5.33;;;;;11.59;60.18;99666.03;5038134;28;45336;-75
2021/12/04 12:44:04;;;;;;;;;3.00;3.00;;;;;11.84;59.97;99706.69;5031752;28;45265;-72
2021/12/04 12:46:36;;;;;;;;;5.00;5.00;;;;;11.92;59.60;99711.13;5027987;28;45222;-73
2021/12/04 12:49:16;;;;;;;;;8.67;6.33;;;;;11.97;59.72;99711.41;5037026;28;45450;-74
2021/12/04 12:51:44;;;;;;;;;6.67;5.33;;;;;12.11;59.81;99711.47;5039585;28;45331;-76
2021/12/04 12:54:21;;;;;;;;;5.67;2.00;;;;;12.14;59.53;99716.44;5040347;28;45241;-73
2021/12/04 12:56:47;;;;;;;;;6.67;5.00;;;;;12.16;59.99;99716.25;5054470;28;45182;-72
2021/12/04 12:59:32;;;;;;;;;11.00;7.67;;;;;12.11;57.94;99708.81;5032929;28;45428;-73
2021/12/04 13:13:41;;;;;;;;;3.67;3.33;;;;;11.73;54.63;99707.06;5038025;28;45341;-70
2021/12/04 13:16:18;;;;;;;;;4.00;4.00;;;;;11.76;55.13;99731.50;5037093;28;45262;-70
2021/12/04 13:18:50;;;;;;;;;3.00;3.00;;;;;11.77;55.18;99735.00;5035912;28;45750;-71
2021/12/04 13:21:15;;;;;;;;;4.00;3.00;;;;;11.68;54.76;99717.41;5036173;28;47042;-69
2021/12/04 13:23:51;;;;;;;;;4.00;3.00;;;;;11.74;55.38;99728.19;5033164;28;45417;-72
2021/12/04 13:26:16;;;;;;;;;4.67;3.67;;;;;11.11;56.02;99636.06;5016282;28;45562;-70
2021/12/04 13:28:45;;;;;;;;;4.67;4.00;;;;;11.76;55.86;99733.34;5016572;28;45541;-71
2021/12/04 13:31:11;;;;;;;;;5.00;4.00;;;;;11.68;55.22;99712.09;5016349;28;47837;-70
2021/12/04 13:33:39;;;;;;;;;5.00;4.33;;;;;11.30;55.05;99652.59;5017804;28;45349;-72
2021/12/04 13:36:26;;;;;;;;;5.00;3.67;;;;;11.76;53.38;99730.66;5017737;28;45343;-69
2021/12/04 13:38:57;;;;;;;;;3.33;3.33;;;;;11.63;52.09;99714.47;5016185;28;45622;-70
2021/12/04 13:41:22;;;;;;;;;4.00;4.00;;;;;11.63;51.80;99739.25;5052345;28;48621;-72
2021/12/04 13:43:55;;;;;;;;;7.00;5.00;;;;;11.65;50.81;99750.56;5048362;28;45726;-70
2021/12/04 13:46:23;;;;;;;;;2.67;2.67;;;;;11.70;51.84;99737.53;5016368;28;45442;-70
2021/12/04 13:48:48;;;;;;;;;4.67;4.67;;;;;11.58;51.49;99717.63;5016029;28;45658;-71
2021/12/04 13:51:14;;;;;;;;;3.67;3.67;;;;;11.52;52.00;99705.03;5016018;28;46639;-70
2021/12/04 13:53:43;;;;;;;;;4.67;4.00;;;;;11.49;51.02;99716.03;5016128;28;45340;-72
2021/12/04 13:56:13;;;;;;;;;4.00;3.00;;;;;11.54;51.61;99721.66;5017662;28;45375;-72
2021/12/04 13:58:54;;;;;;;;;5.00;4.33;;;;;11.49;51.69;99719.53;5016107;28;45237;-72
2021/12/04 14:01:20;;;;;;;;;3.00;3.00;;;;;11.60;51.44;99726.25;5051580;28;46767;-72
2021/12/04 14:03:47;;;;;;;;;3.33;2.67;;;;;11.44;51.86;99699.75;5035703;28;45542;-72
2021/12/04 14:06:17;;;;;;;;;4.00;4.00;;;;;11.56;51.99;99716.97;5036433;28;45365;-70
2021/12/04 14:09:03;;;;;;;;;4.67;3.00;;;;;11.67;51.07;99731.75;5036403;28;45520;-71
2021/12/04 14:11:35;;;;;;;;;3.67;2.67;;;;;11.68;51.29;99728.91;5051143;28;48598;-70
2021/12/04 14:14:18;;;;;;;;;4.00;4.00;;;;;11.78;51.69;99744.63;5030647;28;45307;-73
2021/12/04 14:16:46;;;;;;;;;5.00;4.00;;;;;11.70;52.27;99732.22;5014415;28;45477;-72
2021/12/04 14:19:16;;;;;;;;;12.67;12.67;;;;;11.70;52.10;99734.88;5022928;28;45653;-71
2021/12/04 14:21:51;;;;;;;;;8.00;8.00;;;;;11.70;50.99;99753.50;5035981;28;45559;-71
2021/12/04 14:24:30;;;;;;;;;3.33;3.33;;;;;11.69;51.04;99762.50;5043369;28;45333;-69
2021/12/04 14:26:57;;;;;;;;;4.00;4.00;;;;;11.63;51.23;99752.56;5016536;28;45309;-71
2021/12/04 14:29:26;;;;;;;;;3.00;3.00;;;;;11.38;50.86;99733.19;5016340;28;45552;-70
2021/12/04 14:31:53;;;;;;;;;6.00;2.33;;;;;11.44;50.52;99753.81;5015745;28;46269;-72
2021/12/04 14:34:23;;;;;;;;;5.00;5.00;;;;;11.51;50.91;99777.91;5023603;28;45432;-73
2021/12/04 14:37:03;;;;;;;;;4.33;1.67;;;;;11.14;50.60;99722.69;5036026;28;45282;-71
2021/12/04 14:39:32;;;;;;;;;3.00;1.00;;;;;11.41;51.16;99787.91;5036442;28;45457;-73
2021/12/04 14:41:57;;;;;;;;;5.00;5.00;;;;;11.44;50.88;99792.91;5035587;28;46653;-79
2021/12/04 14:44:24;;;;;;;;;0.33;0.33;;;;;11.28;50.66;99773.34;5035157;28;45234;-73
2021/12/04 14:46:59;;;;;;;;;7.00;5.00;;;;;11.38;50.99;99801.56;5037410;28;45514;-70
2021/12/04 14:49:25;;;;;;;;;6.67;4.00;;;;;11.33;49.99;99798.59;5034220;28;45584;-71
2021/12/04 14:51:50;;;;;;;;;4.67;3.33;;;;;11.29;50.18;99798.13;5034285;28;45880;-71